Coral, Florida
Current Conditions -  °F | °C
As of 10:53 AM on Monday 22 Dec 2014 (Local Time) from KMIA Reporting Station
Broken Clouds Broken Clouds  
Wind Chill: 79°   Ceiling: 25000
Heat Index: 81°   Visibility: 10mi
Dew Point: 68°   Wind: 10mph
Humidity: 69%   Direction: 160°SSE
Pressure: 30.04"   Gusts: 20mph
Location:  25.7527°N, 80.2344°W
Report Text: KMIA 221553Z 16009G17KT 120V180 10SM SCT023 BKN250 26/20 A3004 RMK AO2 SLP173 T02610200
Loading
Personal Weather Stations






























Interactive Weather Map New forecast layout! Learn more

10-Day Weather Forecast

Advertisements
Track Severe Weather on mobile